sensor_id;sensor_type;location;lat;lon;timestamp;P1;durP1;ratioP1;P2;durP2;ratioP2
11935;SDS011;6027;48.576;9.180;2024-01-10T00:01:16;25.63;;;16.00;;
11935;SDS011;6027;48.576;9.180;2024-01-10T00:03:42;28.63;;;16.30;;
11935;SDS011;6027;48.576;9.180;2024-01-10T00:06:07;27.03;;;16.47;;
11935;SDS011;6027;48.576;9.180;2024-01-10T00:08:32;27.07;;;16.63;;
11935;SDS011;6027;48.576;9.180;2024-01-10T00:10:58;26.10;;;16.47;;
11935;SDS011;6027;48.576;9.180;2024-01-10T00:13:23;30.37;;;16.93;;
11935;SDS011;6027;48.576;9.180;2024-01-10T00:15:49;25.20;;;15.70;;
11935;SDS011;6027;48.576;9.180;2024-01-10T00:18:14;27.87;;;17.07;;
11935;SDS011;6027;48.576;9.180;2024-01-10T00:20:40;26.70;;;16.30;;
11935;SDS011;6027;48.576;9.180;2024-01-10T00:23:05;26.03;;;15.80;;
11935;SDS011;6027;48.576;9.180;2024-01-10T00:25:34;27.63;;;16.10;;
11935;SDS011;6027;48.576;9.180;2024-01-10T00:27:59;25.17;;;16.07;;
11935;SDS011;6027;48.576;9.180;2024-01-10T00:30:25;29.57;;;16.57;;
11935;SDS011;6027;48.576;9.180;2024-01-10T00:32:51;27.00;;;15.77;;
11935;SDS011;6027;48.576;9.180;2024-01-10T00:35:16;31.83;;;16.67;;
11935;SDS011;6027;48.576;9.180;2024-01-10T00:37:42;30.93;;;16.67;;
11935;SDS011;6027;48.576;9.180;2024-01-10T00:40:07;28.67;;;16.03;;
11935;SDS011;6027;48.576;9.180;2024-01-10T00:42:33;28.90;;;15.43;;
11935;SDS011;6027;48.576;9.180;2024-01-10T00:45:02;27.67;;;16.10;;
11935;SDS011;6027;48.576;9.180;2024-01-10T00:47:27;29.70;;;14.93;;
11935;SDS011;6027;48.576;9.180;2024-01-10T00:49:53;28.33;;;14.97;;
11935;SDS011;6027;48.576;9.180;2024-01-10T00:52:18;21.07;;;14.17;;
11935;SDS011;6027;48.576;9.180;2024-01-10T00:54:44;25.03;;;14.13;;
11935;SDS011;6027;48.576;9.180;2024-01-10T00:57:11;21.40;;;12.73;;
11935;SDS011;6027;48.576;9.180;2024-01-10T00:59:36;25.97;;;14.13;;
11935;SDS011;6027;48.576;9.180;2024-01-10T01:02:01;26.00;;;13.97;;
11935;SDS011;6027;48.576;9.180;2024-01-10T01:04:27;26.73;;;14.30;;
11935;SDS011;6027;48.576;9.180;2024-01-10T01:06:53;22.03;;;13.47;;
11935;SDS011;6027;48.576;9.180;2024-01-10T01:09:18;22.37;;;13.63;;
11935;SDS011;6027;48.576;9.180;2024-01-10T01:11:44;29.63;;;14.53;;
11935;SDS011;6027;48.576;9.180;2024-01-10T01:14:09;24.80;;;14.83;;
11935;SDS011;6027;48.576;9.180;2024-01-10T01:16:35;28.60;;;15.30;;
11935;SDS011;6027;48.576;9.180;2024-01-10T01:19:00;25.27;;;15.20;;
11935;SDS011;6027;48.576;9.180;2024-01-10T01:21:26;20.53;;;14.13;;
11935;SDS011;6027;48.576;9.180;2024-01-10T01:23:51;21.50;;;13.37;;
11935;SDS011;6027;48.576;9.180;2024-01-10T01:26:17;28.07;;;14.47;;
11935;SDS011;6027;48.576;9.180;2024-01-10T01:28:42;21.90;;;13.70;;
11935;SDS011;6027;48.576;9.180;2024-01-10T01:31:08;24.53;;;14.97;;
11935;SDS011;6027;48.576;9.180;2024-01-10T01:33:33;24.90;;;14.23;;
11935;SDS011;6027;48.576;9.180;2024-01-10T01:35:59;21.03;;;14.23;;
11935;SDS011;6027;48.576;9.180;2024-01-10T01:38:25;22.67;;;13.57;;
11935;SDS011;6027;48.576;9.180;2024-01-10T01:40:52;24.80;;;14.87;;
11935;SDS011;6027;48.576;9.180;2024-01-10T01:43:18;24.17;;;14.73;;
11935;SDS011;6027;48.576;9.180;2024-01-10T01:45:51;21.17;;;13.63;;
11935;SDS011;6027;48.576;9.180;2024-01-10T01:48:18;25.33;;;15.17;;
11935;SDS011;6027;48.576;9.180;2024-01-10T01:50:45;24.40;;;15.17;;
11935;SDS011;6027;48.576;9.180;2024-01-10T01:53:13;22.80;;;13.97;;
11935;SDS011;6027;48.576;9.180;2024-01-10T01:55:40;22.50;;;14.83;;
11935;SDS011;6027;48.576;9.180;2024-01-10T01:58:07;23.37;;;14.77;;
11935;SDS011;6027;48.576;9.180;2024-01-10T02:00:33;23.53;;;14.83;;
11935;SDS011;6027;48.576;9.180;2024-01-10T02:02:59;23.67;;;14.20;;
11935;SDS011;6027;48.576;9.180;2024-01-10T02:05:25;24.47;;;15.33;;
11935;SDS011;6027;48.576;9.180;2024-01-10T02:07:51;24.57;;;15.73;;
11935;SDS011;6027;48.576;9.180;2024-01-10T02:10:17;24.63;;;15.37;;
11935;SDS011;6027;48.576;9.180;2024-01-10T02:12:44;25.57;;;16.13;;
11935;SDS011;6027;48.576;9.180;2024-01-10T02:15:10;29.33;;;15.33;;
11935;SDS011;6027;48.576;9.180;2024-01-10T02:17:36;26.17;;;16.70;;
11935;SDS011;6027;48.576;9.180;2024-01-10T02:20:10;28.13;;;17.43;;
11935;SDS011;6027;48.576;9.180;2024-01-10T02:22:36;29.10;;;17.53;;
11935;SDS011;6027;48.576;9.180;2024-01-10T02:25:03;27.07;;;16.90;;
11935;SDS011;6027;48.576;9.180;2024-01-10T02:27:30;29.13;;;17.23;;
11935;SDS011;6027;48.576;9.180;2024-01-10T02:29:56;24.30;;;16.30;;
11935;SDS011;6027;48.576;9.180;2024-01-10T02:32:22;29.83;;;16.80;;
11935;SDS011;6027;48.576;9.180;2024-01-10T02:34:48;26.47;;;17.27;;
11935;SDS011;6027;48.576;9.180;2024-01-10T02:37:13;26.37;;;16.27;;
11935;SDS011;6027;48.576;9.180;2024-01-10T02:39:39;27.17;;;17.10;;
11935;SDS011;6027;48.576;9.180;2024-01-10T02:42:04;25.10;;;16.97;;
11935;SDS011;6027;48.576;9.180;2024-01-10T02:44:30;27.63;;;16.97;;
11935;SDS011;6027;48.576;9.180;2024-01-10T02:46:55;26.63;;;17.33;;
11935;SDS011;6027;48.576;9.180;2024-01-10T02:49:21;29.90;;;17.23;;
11935;SDS011;6027;48.576;9.180;2024-01-10T02:51:49;28.20;;;17.13;;
11935;SDS011;6027;48.576;9.180;2024-01-10T02:54:14;28.10;;;16.60;;
11935;SDS011;6027;48.576;9.180;2024-01-10T02:56:40;27.47;;;18.20;;
11935;SDS011;6027;48.576;9.180;2024-01-10T02:59:06;27.10;;;17.80;;
11935;SDS011;6027;48.576;9.180;2024-01-10T03:01:31;25.60;;;16.83;;
11935;SDS011;6027;48.576;9.180;2024-01-10T03:03:56;25.30;;;17.50;;
11935;SDS011;6027;48.576;9.180;2024-01-10T03:06:22;28.50;;;19.17;;
11935;SDS011;6027;48.576;9.180;2024-01-10T03:08:48;24.33;;;19.73;;
11935;SDS011;6027;48.576;9.180;2024-01-10T03:11:13;24.93;;;18.93;;
11935;SDS011;6027;48.576;9.180;2024-01-10T03:13:39;26.23;;;18.70;;
11935;SDS011;6027;48.576;9.180;2024-01-10T03:16:05;24.33;;;17.17;;
11935;SDS011;6027;48.576;9.180;2024-01-10T03:18:31;25.63;;;18.33;;
11935;SDS011;6027;48.576;9.180;2024-01-10T03:20:56;26.03;;;17.60;;
11935;SDS011;6027;48.576;9.180;2024-01-10T03:23:21;27.23;;;17.67;;
11935;SDS011;6027;48.576;9.180;2024-01-10T03:25:47;26.33;;;18.00;;
11935;SDS011;6027;48.576;9.180;2024-01-10T03:28:17;26.93;;;17.50;;
11935;SDS011;6027;48.576;9.180;2024-01-10T03:30:43;24.37;;;17.37;;
11935;SDS011;6027;48.576;9.180;2024-01-10T03:33:08;23.37;;;17.33;;
11935;SDS011;6027;48.576;9.180;2024-01-10T03:35:34;28.43;;;17.70;;
11935;SDS011;6027;48.576;9.180;2024-01-10T03:37:59;27.43;;;18.17;;
11935;SDS011;6027;48.576;9.180;2024-01-10T03:40:25;25.00;;;17.10;;
11935;SDS011;6027;48.576;9.180;2024-01-10T03:42:50;24.90;;;17.17;;
11935;SDS011;6027;48.576;9.180;2024-01-10T03:45:16;28.43;;;17.57;;
11935;SDS011;6027;48.576;9.180;2024-01-10T03:47:44;24.90;;;17.53;;
11935;SDS011;6027;48.576;9.180;2024-01-10T03:50:11;29.43;;;18.03;;
11935;SDS011;6027;48.576;9.180;2024-01-10T03:52:37;24.80;;;17.73;;
11935;SDS011;6027;48.576;9.180;2024-01-10T03:55:02;22.57;;;16.63;;
11935;SDS011;6027;48.576;9.180;2024-01-10T03:57:27;27.07;;;17.73;;
11935;SDS011;6027;48.576;9.180;2024-01-10T03:59:53;24.50;;;17.00;;
11935;SDS011;6027;48.576;9.180;2024-01-10T04:02:18;28.10;;;17.50;;
11935;SDS011;6027;48.576;9.180;2024-01-10T04:04:44;27.33;;;18.07;;
11935;SDS011;6027;48.576;9.180;2024-01-10T04:07:09;27.67;;;18.03;;
11935;SDS011;6027;48.576;9.180;2024-01-10T04:09:34;26.50;;;17.40;;
11935;SDS011;6027;48.576;9.180;2024-01-10T04:12:00;28.70;;;18.37;;
11935;SDS011;6027;48.576;9.180;2024-01-10T04:14:25;25.90;;;16.63;;
11935;SDS011;6027;48.576;9.180;2024-01-10T04:16:51;28.57;;;17.83;;
11935;SDS011;6027;48.576;9.180;2024-01-10T04:19:18;27.73;;;16.47;;
11935;SDS011;6027;48.576;9.180;2024-01-10T04:21:44;25.27;;;16.13;;
11935;SDS011;6027;48.576;9.180;2024-01-10T04:24:09;24.57;;;16.13;;
11935;SDS011;6027;48.576;9.180;2024-01-10T04:26:34;27.80;;;15.97;;
11935;SDS011;6027;48.576;9.180;2024-01-10T04:29:00;25.13;;;16.03;;
11935;SDS011;6027;48.576;9.180;2024-01-10T04:31:26;27.60;;;22.37;;
11935;SDS011;6027;48.576;9.180;2024-01-10T04:33:51;27.80;;;24.83;;
11935;SDS011;6027;48.576;9.180;2024-01-10T04:36:16;25.50;;;20.00;;
11935;SDS011;6027;48.576;9.180;2024-01-10T04:38:42;28.43;;;19.97;;
11935;SDS011;6027;48.576;9.180;2024-01-10T04:41:07;28.33;;;19.53;;
11935;SDS011;6027;48.576;9.180;2024-01-10T04:43:32;27.27;;;19.27;;
11935;SDS011;6027;48.576;9.180;2024-01-10T04:45:58;25.40;;;17.93;;
11935;SDS011;6027;48.576;9.180;2024-01-10T04:48:23;26.37;;;17.13;;
11935;SDS011;6027;48.576;9.180;2024-01-10T04:50:49;27.93;;;17.17;;
11935;SDS011;6027;48.576;9.180;2024-01-10T04:53:37;28.70;;;17.97;;
11935;SDS011;6027;48.576;9.180;2024-01-10T04:56:21;28.60;;;17.33;;
11935;SDS011;6027;48.576;9.180;2024-01-10T04:58:53;25.37;;;17.10;;
11935;SDS011;6027;48.576;9.180;2024-01-10T05:01:18;27.30;;;17.00;;
11935;SDS011;6027;48.576;9.180;2024-01-10T05:03:44;23.87;;;15.50;;
11935;SDS011;6027;48.576;9.180;2024-01-10T05:06:30;28.83;;;16.70;;
11935;SDS011;6027;48.576;9.180;2024-01-10T05:09:17;26.13;;;16.73;;
11935;SDS011;6027;48.576;9.180;2024-01-10T05:11:57;27.43;;;17.67;;
11935;SDS011;6027;48.576;9.180;2024-01-10T05:14:48;32.77;;;18.83;;
11935;SDS011;6027;48.576;9.180;2024-01-10T05:17:33;31.00;;;19.67;;
11935;SDS011;6027;48.576;9.180;2024-01-10T05:20:15;33.90;;;18.43;;
11935;SDS011;6027;48.576;9.180;2024-01-10T05:23:02;32.22;;;26.42;;
11935;SDS011;6027;48.576;9.180;2024-01-10T05:25:49;33.77;;;25.00;;
11935;SDS011;6027;48.576;9.180;2024-01-10T05:28:35;32.10;;;25.10;;
11935;SDS011;6027;48.576;9.180;2024-01-10T05:31:01;29.20;;;24.60;;
11935;SDS011;6027;48.576;9.180;2024-01-10T05:33:26;30.83;;;26.10;;
11935;SDS011;6027;48.576;9.180;2024-01-10T05:35:52;29.83;;;23.50;;
11935;SDS011;6027;48.576;9.180;2024-01-10T05:38:17;33.20;;;24.63;;
11935;SDS011;6027;48.576;9.180;2024-01-10T05:40:43;36.00;;;24.47;;
11935;SDS011;6027;48.576;9.180;2024-01-10T05:43:08;34.23;;;23.33;;
11935;SDS011;6027;48.576;9.180;2024-01-10T05:45:35;30.23;;;21.30;;
11935;SDS011;6027;48.576;9.180;2024-01-10T05:48:05;27.60;;;19.57;;
11935;SDS011;6027;48.576;9.180;2024-01-10T05:50:35;30.00;;;18.50;;
11935;SDS011;6027;48.576;9.180;2024-01-10T05:53:01;23.90;;;17.83;;
11935;SDS011;6027;48.576;9.180;2024-01-10T05:55:27;25.20;;;18.53;;
11935;SDS011;6027;48.576;9.180;2024-01-10T05:57:56;25.50;;;16.87;;
11935;SDS011;6027;48.576;9.180;2024-01-10T06:00:21;28.80;;;17.13;;
11935;SDS011;6027;48.576;9.180;2024-01-10T06:02:47;31.80;;;17.30;;
11935;SDS011;6027;48.576;9.180;2024-01-10T06:05:12;25.47;;;16.40;;
11935;SDS011;6027;48.576;9.180;2024-01-10T06:07:38;26.13;;;16.73;;
11935;SDS011;6027;48.576;9.180;2024-01-10T06:10:08;28.77;;;18.13;;
11935;SDS011;6027;48.576;9.180;2024-01-10T06:12:36;26.73;;;18.20;;
11935;SDS011;6027;48.576;9.180;2024-01-10T06:15:03;29.50;;;18.53;;
11935;SDS011;6027;48.576;9.180;2024-01-10T06:17:29;37.13;;;20.00;;
11935;SDS011;6027;48.576;9.180;2024-01-10T06:19:55;29.03;;;17.87;;
11935;SDS011;6027;48.576;9.180;2024-01-10T06:22:20;27.70;;;17.77;;
11935;SDS011;6027;48.576;9.180;2024-01-10T06:24:50;29.50;;;17.77;;
11935;SDS011;6027;48.576;9.180;2024-01-10T06:27:15;29.53;;;19.07;;
11935;SDS011;6027;48.576;9.180;2024-01-10T06:29:42;34.33;;;19.50;;
11935;SDS011;6027;48.576;9.180;2024-01-10T06:32:07;32.53;;;19.63;;
11935;SDS011;6027;48.576;9.180;2024-01-10T06:34:32;34.87;;;20.73;;
11935;SDS011;6027;48.576;9.180;2024-01-10T06:36:58;37.37;;;22.03;;
11935;SDS011;6027;48.576;9.180;2024-01-10T06:39:24;36.97;;;21.70;;
11935;SDS011;6027;48.576;9.180;2024-01-10T06:41:49;32.87;;;20.60;;
11935;SDS011;6027;48.576;9.180;2024-01-10T06:44:15;35.27;;;22.30;;
11935;SDS011;6027;48.576;9.180;2024-01-10T06:46:45;38.13;;;22.13;;
11935;SDS011;6027;48.576;9.180;2024-01-10T06:49:10;39.33;;;22.33;;
11935;SDS011;6027;48.576;9.180;2024-01-10T06:51:36;34.97;;;21.63;;
11935;SDS011;6027;48.576;9.180;2024-01-10T06:54:01;32.67;;;19.87;;
11935;SDS011;6027;48.576;9.180;2024-01-10T06:56:30;31.60;;;19.90;;
11935;SDS011;6027;48.576;9.180;2024-01-10T06:58:57;33.97;;;19.73;;
11935;SDS011;6027;48.576;9.180;2024-01-10T07:01:23;37.03;;;22.10;;
11935;SDS011;6027;48.576;9.180;2024-01-10T07:03:49;36.50;;;20.70;;
11935;SDS011;6027;48.576;9.180;2024-01-10T07:06:24;30.03;;;18.17;;
11935;SDS011;6027;48.576;9.180;2024-01-10T07:08:50;34.47;;;18.57;;
11935;SDS011;6027;48.576;9.180;2024-01-10T07:11:16;25.53;;;16.57;;
11935;SDS011;6027;48.576;9.180;2024-01-10T07:13:42;24.97;;;15.27;;
11935;SDS011;6027;48.576;9.180;2024-01-10T07:16:08;25.83;;;15.77;;
11935;SDS011;6027;48.576;9.180;2024-01-10T07:18:34;25.90;;;15.47;;
11935;SDS011;6027;48.576;9.180;2024-01-10T07:20:59;25.73;;;16.20;;
11935;SDS011;6027;48.576;9.180;2024-01-10T07:23:25;30.33;;;17.87;;
11935;SDS011;6027;48.576;9.180;2024-01-10T07:25:51;30.50;;;17.70;;
11935;SDS011;6027;48.576;9.180;2024-01-10T07:28:17;31.00;;;18.83;;
11935;SDS011;6027;48.576;9.180;2024-01-10T07:30:44;28.33;;;17.43;;
11935;SDS011;6027;48.576;9.180;2024-01-10T07:33:09;26.63;;;16.70;;
11935;SDS011;6027;48.576;9.180;2024-01-10T07:35:35;27.53;;;18.00;;
11935;SDS011;6027;48.576;9.180;2024-01-10T07:38:01;28.60;;;16.90;;
11935;SDS011;6027;48.576;9.180;2024-01-10T07:40:26;24.73;;;16.60;;
11935;SDS011;6027;48.576;9.180;2024-01-10T07:42:52;28.97;;;16.63;;
11935;SDS011;6027;48.576;9.180;2024-01-10T07:45:17;32.87;;;17.90;;
11935;SDS011;6027;48.576;9.180;2024-01-10T07:47:43;30.77;;;16.97;;
11935;SDS011;6027;48.576;9.180;2024-01-10T07:50:09;26.20;;;16.83;;
11935;SDS011;6027;48.576;9.180;2024-01-10T07:52:35;27.10;;;17.03;;
11935;SDS011;6027;48.576;9.180;2024-01-10T07:55:01;26.00;;;16.47;;
11935;SDS011;6027;48.576;9.180;2024-01-10T07:57:30;26.23;;;17.37;;
11935;SDS011;6027;48.576;9.180;2024-01-10T07:59:55;30.43;;;17.73;;
11935;SDS011;6027;48.576;9.180;2024-01-10T08:02:21;29.00;;;18.50;;
11935;SDS011;6027;48.576;9.180;2024-01-10T08:04:47;28.73;;;17.83;;
11935;SDS011;6027;48.576;9.180;2024-01-10T08:07:12;32.60;;;18.07;;
11935;SDS011;6027;48.576;9.180;2024-01-10T08:09:38;30.37;;;17.43;;
11935;SDS011;6027;48.576;9.180;2024-01-10T08:12:04;27.30;;;18.30;;
11935;SDS011;6027;48.576;9.180;2024-01-10T08:14:29;31.63;;;18.30;;
11935;SDS011;6027;48.576;9.180;2024-01-10T08:16:55;33.57;;;18.87;;
11935;SDS011;6027;48.576;9.180;2024-01-10T08:19:23;28.77;;;17.93;;
11935;SDS011;6027;48.576;9.180;2024-01-10T08:21:51;30.30;;;19.23;;
11935;SDS011;6027;48.576;9.180;2024-01-10T08:24:19;28.83;;;18.87;;
11935;SDS011;6027;48.576;9.180;2024-01-10T08:26:46;32.43;;;19.37;;
11935;SDS011;6027;48.576;9.180;2024-01-10T08:29:11;29.93;;;18.57;;
11935;SDS011;6027;48.576;9.180;2024-01-10T08:31:37;34.47;;;20.27;;
11935;SDS011;6027;48.576;9.180;2024-01-10T08:34:04;37.33;;;20.53;;
11935;SDS011;6027;48.576;9.180;2024-01-10T08:36:29;36.37;;;20.87;;
11935;SDS011;6027;48.576;9.180;2024-01-10T08:38:54;34.27;;;21.40;;
11935;SDS011;6027;48.576;9.180;2024-01-10T08:41:20;36.20;;;21.70;;
11935;SDS011;6027;48.576;9.180;2024-01-10T08:43:46;34.57;;;20.60;;
11935;SDS011;6027;48.576;9.180;2024-01-10T08:46:12;33.70;;;21.20;;
11935;SDS011;6027;48.576;9.180;2024-01-10T08:48:37;33.63;;;20.80;;
11935;SDS011;6027;48.576;9.180;2024-01-10T08:51:03;32.53;;;20.33;;
11935;SDS011;6027;48.576;9.180;2024-01-10T08:53:28;32.27;;;20.90;;
11935;SDS011;6027;48.576;9.180;2024-01-10T08:55:54;32.33;;;21.47;;
11935;SDS011;6027;48.576;9.180;2024-01-10T08:58:19;36.53;;;21.93;;
11935;SDS011;6027;48.576;9.180;2024-01-10T09:00:45;32.03;;;19.77;;
11935;SDS011;6027;48.576;9.180;2024-01-10T09:03:10;34.10;;;20.63;;
11935;SDS011;6027;48.576;9.180;2024-01-10T09:05:36;29.23;;;18.93;;
11935;SDS011;6027;48.576;9.180;2024-01-10T09:08:01;31.53;;;19.27;;
11935;SDS011;6027;48.576;9.180;2024-01-10T09:10:28;29.30;;;19.93;;
11935;SDS011;6027;48.576;9.180;2024-01-10T09:12:53;31.60;;;21.07;;
11935;SDS011;6027;48.576;9.180;2024-01-10T09:15:19;33.50;;;22.37;;
11935;SDS011;6027;48.576;9.180;2024-01-10T09:17:44;31.27;;;20.20;;
11935;SDS011;6027;48.576;9.180;2024-01-10T09:20:10;29.60;;;20.23;;
11935;SDS011;6027;48.576;9.180;2024-01-10T09:22:37;28.10;;;19.60;;
11935;SDS011;6027;48.576;9.180;2024-01-10T09:25:05;28.37;;;19.47;;
11935;SDS011;6027;48.576;9.180;2024-01-10T09:27:34;28.60;;;20.03;;
11935;SDS011;6027;48.576;9.180;2024-01-10T09:30:00;27.10;;;20.30;;
11935;SDS011;6027;48.576;9.180;2024-01-10T09:32:35;28.03;;;19.97;;
11935;SDS011;6027;48.576;9.180;2024-01-10T09:35:02;30.93;;;19.27;;
11935;SDS011;6027;48.576;9.180;2024-01-10T09:37:27;26.57;;;19.03;;
11935;SDS011;6027;48.576;9.180;2024-01-10T09:39:53;28.27;;;20.17;;
11935;SDS011;6027;48.576;9.180;2024-01-10T09:42:19;28.10;;;18.97;;
11935;SDS011;6027;48.576;9.180;2024-01-10T09:44:46;30.10;;;21.50;;
11935;SDS011;6027;48.576;9.180;2024-01-10T09:47:13;29.33;;;19.57;;
11935;SDS011;6027;48.576;9.180;2024-01-10T09:49:40;31.63;;;21.03;;
11935;SDS011;6027;48.576;9.180;2024-01-10T09:52:05;29.10;;;20.67;;
11935;SDS011;6027;48.576;9.180;2024-01-10T09:54:35;28.87;;;20.70;;
11935;SDS011;6027;48.576;9.180;2024-01-10T09:57:03;31.97;;;22.03;;
11935;SDS011;6027;48.576;9.180;2024-01-10T09:59:31;28.13;;;20.23;;
11935;SDS011;6027;48.576;9.180;2024-01-10T10:01:56;28.30;;;20.80;;
11935;SDS011;6027;48.576;9.180;2024-01-10T10:04:26;29.83;;;21.27;;
11935;SDS011;6027;48.576;9.180;2024-01-10T10:06:58;26.70;;;20.37;;
11935;SDS011;6027;48.576;9.180;2024-01-10T10:09:26;31.47;;;20.23;;
11935;SDS011;6027;48.576;9.180;2024-01-10T10:11:54;30.30;;;20.90;;
11935;SDS011;6027;48.576;9.180;2024-01-10T10:14:19;32.77;;;20.73;;
11935;SDS011;6027;48.576;9.180;2024-01-10T10:16:45;26.87;;;20.20;;
11935;SDS011;6027;48.576;9.180;2024-01-10T10:19:10;29.67;;;20.27;;
11935;SDS011;6027;48.576;9.180;2024-01-10T10:21:37;28.47;;;20.43;;
11935;SDS011;6027;48.576;9.180;2024-01-10T10:24:04;28.53;;;21.50;;
11935;SDS011;6027;48.576;9.180;2024-01-10T10:26:31;28.20;;;21.07;;
11935;SDS011;6027;48.576;9.180;2024-01-10T10:28:58;30.83;;;21.00;;
11935;SDS011;6027;48.576;9.180;2024-01-10T10:31:24;30.03;;;20.97;;
11935;SDS011;6027;48.576;9.180;2024-01-10T10:33:50;29.07;;;20.80;;
11935;SDS011;6027;48.576;9.180;2024-01-10T10:36:16;22.20;;;16.57;;
11935;SDS011;6027;48.576;9.180;2024-01-10T10:38:42;25.13;;;18.43;;
11935;SDS011;6027;48.576;9.180;2024-01-10T10:41:08;24.33;;;17.20;;
11935;SDS011;6027;48.576;9.180;2024-01-10T10:43:35;25.40;;;18.40;;
11935;SDS011;6027;48.576;9.180;2024-01-10T10:46:02;24.87;;;19.77;;
11935;SDS011;6027;48.576;9.180;2024-01-10T10:48:31;26.37;;;19.37;;
11935;SDS011;6027;48.576;9.180;2024-01-10T10:53:31;27.83;;;19.90;;
11935;SDS011;6027;48.576;9.180;2024-01-10T10:56:00;24.63;;;19.43;;
11935;SDS011;6027;48.576;9.180;2024-01-10T10:58:25;25.63;;;18.80;;
11935;SDS011;6027;48.576;9.180;2024-01-10T11:00:53;23.57;;;17.97;;
11935;SDS011;6027;48.576;9.180;2024-01-10T11:03:20;23.90;;;18.10;;
11935;SDS011;6027;48.576;9.180;2024-01-10T11:05:46;22.20;;;17.50;;
11935;SDS011;6027;48.576;9.180;2024-01-10T11:08:12;25.00;;;18.00;;
11935;SDS011;6027;48.576;9.180;2024-01-10T11:10:42;22.87;;;17.87;;
11935;SDS011;6027;48.576;9.180;2024-01-10T11:24:15;24.03;;;15.80;;
11935;SDS011;6027;48.576;9.180;2024-01-10T11:26:42;22.10;;;15.50;;
11935;SDS011;6027;48.576;9.180;2024-01-10T11:29:09;22.80;;;15.97;;
11935;SDS011;6027;48.576;9.180;2024-01-10T11:31:35;25.70;;;16.30;;
11935;SDS011;6027;48.576;9.180;2024-01-10T11:34:00;27.13;;;17.73;;
11935;SDS011;6027;48.576;9.180;2024-01-10T11:36:27;23.30;;;16.80;;
11935;SDS011;6027;48.576;9.180;2024-01-10T11:39:02;21.23;;;16.50;;
11935;SDS011;6027;48.576;9.180;2024-01-10T11:41:30;21.50;;;16.50;;
11935;SDS011;6027;48.576;9.180;2024-01-10T11:46:35;27.10;;;17.00;;
11935;SDS011;6027;48.576;9.180;2024-01-10T11:49:03;25.73;;;17.77;;
11935;SDS011;6027;48.576;9.180;2024-01-10T11:51:29;24.77;;;17.87;;
11935;SDS011;6027;48.576;9.180;2024-01-10T11:53:54;21.40;;;16.80;;
11935;SDS011;6027;48.576;9.180;2024-01-10T11:56:22;25.20;;;18.13;;
11935;SDS011;6027;48.576;9.180;2024-01-10T12:01:36;25.87;;;18.17;;
11935;SDS011;6027;48.576;9.180;2024-01-10T12:04:02;26.57;;;19.20;;
11935;SDS011;6027;48.576;9.180;2024-01-10T12:06:29;23.87;;;18.47;;
11935;SDS011;6027;48.576;9.180;2024-01-10T12:08:56;24.83;;;19.03;;
11935;SDS011;6027;48.576;9.180;2024-01-10T12:11:22;23.70;;;17.60;;
11935;SDS011;6027;48.576;9.180;2024-01-10T12:13:48;26.33;;;18.90;;
11935;SDS011;6027;48.576;9.180;2024-01-10T12:16:14;23.30;;;18.97;;
11935;SDS011;6027;48.576;9.180;2024-01-10T12:18:41;24.90;;;19.43;;
11935;SDS011;6027;48.576;9.180;2024-01-10T12:21:07;22.97;;;18.47;;
11935;SDS011;6027;48.576;9.180;2024-01-10T12:23:34;24.53;;;18.80;;
11935;SDS011;6027;48.576;9.180;2024-01-10T12:26:03;29.30;;;19.07;;
11935;SDS011;6027;48.576;9.180;2024-01-10T12:28:35;24.23;;;19.87;;
11935;SDS011;6027;48.576;9.180;2024-01-10T12:31:02;31.57;;;19.67;;
11935;SDS011;6027;48.576;9.180;2024-01-10T12:33:29;28.30;;;20.07;;
11935;SDS011;6027;48.576;9.180;2024-01-10T12:36:09;30.20;;;19.37;;
11935;SDS011;6027;48.576;9.180;2024-01-10T12:38:36;25.57;;;18.87;;
11935;SDS011;6027;48.576;9.180;2024-01-10T12:41:03;23.33;;;18.97;;
11935;SDS011;6027;48.576;9.180;2024-01-10T12:43:30;25.70;;;19.07;;
11935;SDS011;6027;48.576;9.180;2024-01-10T12:46:30;23.97;;;18.73;;
11935;SDS011;6027;48.576;9.180;2024-01-10T12:49:01;23.80;;;18.63;;
11935;SDS011;6027;48.576;9.180;2024-01-10T12:51:28;25.00;;;19.90;;
11935;SDS011;6027;48.576;9.180;2024-01-10T12:53:54;23.20;;;18.90;;
11935;SDS011;6027;48.576;9.180;2024-01-10T12:56:21;22.67;;;19.73;;
11935;SDS011;6027;48.576;9.180;2024-01-10T12:58:46;23.83;;;19.77;;
11935;SDS011;6027;48.576;9.180;2024-01-10T13:01:12;23.67;;;18.67;;
11935;SDS011;6027;48.576;9.180;2024-01-10T13:03:38;21.90;;;19.03;;
11935;SDS011;6027;48.576;9.180;2024-01-10T13:06:04;22.50;;;19.90;;
11935;SDS011;6027;48.576;9.180;2024-01-10T13:08:30;21.00;;;18.87;;
11935;SDS011;6027;48.576;9.180;2024-01-10T13:10:56;21.00;;;18.70;;
11935;SDS011;6027;48.576;9.180;2024-01-10T13:13:22;22.30;;;18.93;;
11935;SDS011;6027;48.576;9.180;2024-01-10T13:15:48;22.47;;;19.10;;
11935;SDS011;6027;48.576;9.180;2024-01-10T13:18:14;21.87;;;19.63;;
11935;SDS011;6027;48.576;9.180;2024-01-10T13:20:40;20.50;;;16.83;;
11935;SDS011;6027;48.576;9.180;2024-01-10T13:23:09;22.67;;;17.90;;
11935;SDS011;6027;48.576;9.180;2024-01-10T13:25:35;22.20;;;18.10;;
11935;SDS011;6027;48.576;9.180;2024-01-10T13:28:04;22.27;;;17.10;;
11935;SDS011;6027;48.576;9.180;2024-01-10T13:30:30;23.07;;;17.57;;
11935;SDS011;6027;48.576;9.180;2024-01-10T13:32:55;20.47;;;15.53;;
11935;SDS011;6027;48.576;9.180;2024-01-10T13:35:23;21.03;;;16.40;;
11935;SDS011;6027;48.576;9.180;2024-01-10T13:37:49;19.87;;;15.37;;
11935;SDS011;6027;48.576;9.180;2024-01-10T13:40:14;20.57;;;16.03;;
11935;SDS011;6027;48.576;9.180;2024-01-10T13:42:40;21.03;;;16.27;;
11935;SDS011;6027;48.576;9.180;2024-01-10T13:45:06;19.60;;;15.77;;
11935;SDS011;6027;48.576;9.180;2024-01-10T13:47:38;24.73;;;18.80;;
11935;SDS011;6027;48.576;9.180;2024-01-10T13:50:05;23.00;;;18.20;;
11935;SDS011;6027;48.576;9.180;2024-01-10T13:52:32;27.37;;;23.07;;
11935;SDS011;6027;48.576;9.180;2024-01-10T13:54:57;22.40;;;17.40;;
11935;SDS011;6027;48.576;9.180;2024-01-10T13:57:23;29.73;;;23.33;;
11935;SDS011;6027;48.576;9.180;2024-01-10T13:59:49;25.97;;;22.80;;
11935;SDS011;6027;48.576;9.180;2024-01-10T14:02:14;23.47;;;20.70;;
11935;SDS011;6027;48.576;9.180;2024-01-10T14:04:41;29.90;;;22.83;;
11935;SDS011;6027;48.576;9.180;2024-01-10T14:07:06;23.80;;;19.70;;
11935;SDS011;6027;48.576;9.180;2024-01-10T14:09:32;25.43;;;20.93;;
11935;SDS011;6027;48.576;9.180;2024-01-10T14:11:57;25.77;;;21.67;;
11935;SDS011;6027;48.576;9.180;2024-01-10T14:14:23;32.23;;;25.43;;
11935;SDS011;6027;48.576;9.180;2024-01-10T14:16:48;27.20;;;22.17;;
11935;SDS011;6027;48.576;9.180;2024-01-10T14:19:14;43.20;;;32.57;;
11935;SDS011;6027;48.576;9.180;2024-01-10T14:21:42;39.17;;;33.20;;
11935;SDS011;6027;48.576;9.180;2024-01-10T14:24:07;31.00;;;24.50;;
11935;SDS011;6027;48.576;9.180;2024-01-10T14:26:33;36.60;;;28.77;;
11935;SDS011;6027;48.576;9.180;2024-01-10T14:28:58;27.63;;;21.07;;
11935;SDS011;6027;48.576;9.180;2024-01-10T14:31:24;25.20;;;20.50;;
11935;SDS011;6027;48.576;9.180;2024-01-10T14:33:49;29.43;;;23.37;;
11935;SDS011;6027;48.576;9.180;2024-01-10T14:36:15;39.07;;;34.87;;
11935;SDS011;6027;48.576;9.180;2024-01-10T14:38:40;27.00;;;22.33;;
11935;SDS011;6027;48.576;9.180;2024-01-10T14:41:07;29.17;;;24.37;;
11935;SDS011;6027;48.576;9.180;2024-01-10T14:43:33;33.43;;;25.43;;
11935;SDS011;6027;48.576;9.180;2024-01-10T14:46:02;31.57;;;23.53;;
11935;SDS011;6027;48.576;9.180;2024-01-10T14:48:28;27.93;;;24.90;;
11935;SDS011;6027;48.576;9.180;2024-01-10T14:50:53;32.73;;;25.80;;